Northumberland, New Hampshire
Current Conditions -  °F | °C
As of 9:52 PM on Wednesday 22 Oct 2014 (Local Time) from KHIE Reporting Station
Haze Haze  
Wind Chill: 41°   Ceiling: 1900
Heat Index: 47°   Visibility: 6mi
Dew Point: 44°   Wind: 15mph
Humidity: 90%   Direction: 80°E
Pressure: 30.07"   Gusts: NA
Location:  44.3946°N, 71.4295°W
Report Text: KHIE 230152Z AUTO 08013KT 6SM BR BKN019 OVC025 08/07 A3007 RMK AO2 RAB0056E22B38E52 SLP188 P0000 T00830067
Loading
Personal Weather Stations






























Interactive Weather Map
Tropical Storm Tracking
New forecast layout! Learn more

10-Day Weather Forecast

Advertisements
Track Severe Weather on mobile